sensor_id;sensor_type;location;lat;lon;timestamp;pressure;altitude;pressure_sealevel;temperature;humidity
78745;BME280;68064;53.100;8.824;2023-07-08T00:00:24;102176.19;;;17.45;51.44
78745;BME280;68064;53.100;8.824;2023-07-08T00:01:25;102175.59;;;17.30;59.79
78745;BME280;68064;53.100;8.824;2023-07-08T00:02:26;102177.44;;;17.32;52.62
78745;BME280;68064;53.100;8.824;2023-07-08T00:03:27;102179.06;;;17.30;52.08
78745;BME280;68064;53.100;8.824;2023-07-08T00:04:28;102173.97;;;17.32;51.99
78745;BME280;68064;53.100;8.824;2023-07-08T00:05:29;102167.44;;;17.19;53.83
78745;BME280;68064;53.100;8.824;2023-07-08T00:06:30;102165.78;;;17.21;52.92
78745;BME280;68064;53.100;8.824;2023-07-08T00:07:33;102174.25;;;17.17;54.20
78745;BME280;68064;53.100;8.824;2023-07-08T00:08:34;102162.38;;;17.22;52.71
78745;BME280;68064;53.100;8.824;2023-07-08T00:09:35;102165.88;;;17.23;52.63
78745;BME280;68064;53.100;8.824;2023-07-08T00:10:36;102162.97;;;17.15;53.36
78745;BME280;68064;53.100;8.824;2023-07-08T00:11:37;102154.28;;;17.13;52.39
78745;BME280;68064;53.100;8.824;2023-07-08T00:12:39;102156.69;;;17.09;53.16
78745;BME280;68064;53.100;8.824;2023-07-08T00:13:39;102154.09;;;17.09;52.54
78745;BME280;68064;53.100;8.824;2023-07-08T00:14:40;102162.53;;;17.03;54.27
78745;BME280;68064;53.100;8.824;2023-07-08T00:15:41;102155.75;;;17.07;53.18
78745;BME280;68064;53.100;8.824;2023-07-08T00:16:42;102152.28;;;17.06;56.89
78745;BME280;68064;53.100;8.824;2023-07-08T00:17:44;102154.03;;;17.07;53.26
78745;BME280;68064;53.100;8.824;2023-07-08T00:18:46;102158.38;;;17.08;52.69
78745;BME280;68064;53.100;8.824;2023-07-08T00:19:47;102151.34;;;17.04;58.27
78745;BME280;68064;53.100;8.824;2023-07-08T00:20:49;102157.38;;;17.05;53.11
78745;BME280;68064;53.100;8.824;2023-07-08T00:21:50;102153.88;;;17.03;52.63
78745;BME280;68064;53.100;8.824;2023-07-08T00:22:53;102153.75;;;17.00;52.42
78745;BME280;68064;53.100;8.824;2023-07-08T00:23:54;102159.47;;;16.91;60.88
78745;BME280;68064;53.100;8.824;2023-07-08T00:24:55;102161.06;;;16.87;53.88
78745;BME280;68064;53.100;8.824;2023-07-08T00:25:56;102160.19;;;16.87;53.71
78745;BME280;68064;53.100;8.824;2023-07-08T00:26:57;102158.47;;;16.87;52.94
78745;BME280;68064;53.100;8.824;2023-07-08T00:27:58;102159.22;;;16.85;53.40
78745;BME280;68064;53.100;8.824;2023-07-08T00:28:59;102153.13;;;16.83;52.96
78745;BME280;68064;53.100;8.824;2023-07-08T00:30:00;102170.53;;;16.87;52.98
78745;BME280;68064;53.100;8.824;2023-07-08T00:31:01;102161.00;;;16.86;54.64
78745;BME280;68064;53.100;8.824;2023-07-08T00:32:04;102160.06;;;16.84;52.82
78745;BME280;68064;53.100;8.824;2023-07-08T00:33:08;102154.03;;;16.85;52.85
78745;BME280;68064;53.100;8.824;2023-07-08T00:34:09;102160.88;;;16.83;53.23
78745;BME280;68064;53.100;8.824;2023-07-08T00:35:10;102158.88;;;16.76;53.31
78745;BME280;68064;53.100;8.824;2023-07-08T00:36:12;102157.13;;;16.75;53.02
78745;BME280;68064;53.100;8.824;2023-07-08T00:37:15;102154.41;;;16.72;52.80
78745;BME280;68064;53.100;8.824;2023-07-08T00:38:19;102154.34;;;16.70;52.94
78745;BME280;68064;53.100;8.824;2023-07-08T00:39:21;102160.56;;;16.75;52.76
78745;BME280;68064;53.100;8.824;2023-07-08T00:40:22;102156.16;;;16.73;52.87
78745;BME280;68064;53.100;8.824;2023-07-08T00:41:25;102155.34;;;16.74;53.04
78745;BME280;68064;53.100;8.824;2023-07-08T00:42:29;102159.72;;;16.75;52.85
78745;BME280;68064;53.100;8.824;2023-07-08T00:43:35;102157.84;;;16.72;53.29
78745;BME280;68064;53.100;8.824;2023-07-08T00:44:37;102157.69;;;16.68;52.77
78745;BME280;68064;53.100;8.824;2023-07-08T00:45:41;102154.16;;;16.66;56.68
78745;BME280;68064;53.100;8.824;2023-07-08T00:46:50;102156.56;;;16.61;53.94
78745;BME280;68064;53.100;8.824;2023-07-08T00:48:01;102153.91;;;16.60;53.34
78745;BME280;68064;53.100;8.824;2023-07-08T00:49:23;102152.16;;;16.59;52.99
78745;BME280;68064;53.100;8.824;2023-07-08T00:50:25;102150.13;;;16.52;61.46
78745;BME280;68064;53.100;8.824;2023-07-08T00:51:27;102150.28;;;16.55;53.89
78745;BME280;68064;53.100;8.824;2023-07-08T00:52:28;102150.88;;;16.49;54.72
78745;BME280;68064;53.100;8.824;2023-07-08T00:53:32;102157.63;;;16.46;55.96
78745;BME280;68064;53.100;8.824;2023-07-08T00:54:34;102152.50;;;16.47;54.04
78745;BME280;68064;53.100;8.824;2023-07-08T00:55:35;102152.38;;;16.44;57.14
78745;BME280;68064;53.100;8.824;2023-07-08T00:56:39;102151.38;;;16.40;53.94
78745;BME280;68064;53.100;8.824;2023-07-08T00:57:44;102149.63;;;16.39;54.56
78745;BME280;68064;53.100;8.824;2023-07-08T00:58:51;102153.84;;;16.37;53.81
78745;BME280;68064;53.100;8.824;2023-07-08T00:59:56;102140.16;;;16.40;53.64
78745;BME280;68064;53.100;8.824;2023-07-08T01:01:00;102150.44;;;16.38;53.60
78745;BME280;68064;53.100;8.824;2023-07-08T01:02:05;102147.88;;;16.38;53.48
78745;BME280;68064;53.100;8.824;2023-07-08T01:03:08;102147.88;;;16.38;53.66
78745;BME280;68064;53.100;8.824;2023-07-08T01:04:11;102145.16;;;16.35;53.35
78745;BME280;68064;53.100;8.824;2023-07-08T01:05:15;102140.88;;;16.36;53.46
78745;BME280;68064;53.100;8.824;2023-07-08T01:06:18;102141.66;;;16.33;53.69
78745;BME280;68064;53.100;8.824;2023-07-08T01:07:20;102143.25;;;16.31;53.72
78745;BME280;68064;53.100;8.824;2023-07-08T01:08:22;102139.75;;;16.29;53.68
78745;BME280;68064;53.100;8.824;2023-07-08T01:09:26;102144.16;;;16.32;53.74
78745;BME280;68064;53.100;8.824;2023-07-08T01:10:33;102146.69;;;16.30;53.75
78745;BME280;68064;53.100;8.824;2023-07-08T01:11:37;102146.59;;;16.29;53.65
78745;BME280;68064;53.100;8.824;2023-07-08T01:12:43;102146.50;;;16.26;57.95
78745;BME280;68064;53.100;8.824;2023-07-08T01:13:45;102140.94;;;16.17;60.77
78745;BME280;68064;53.100;8.824;2023-07-08T01:14:46;102138.28;;;16.15;54.54
78745;BME280;68064;53.100;8.824;2023-07-08T01:15:48;102148.69;;;16.17;54.14
78745;BME280;68064;53.100;8.824;2023-07-08T01:16:51;102134.91;;;16.16;54.00
78745;BME280;68064;53.100;8.824;2023-07-08T01:17:52;102132.44;;;16.19;53.94
78745;BME280;68064;53.100;8.824;2023-07-08T01:18:54;102134.22;;;16.20;53.68
78745;BME280;68064;53.100;8.824;2023-07-08T01:19:55;102134.94;;;16.18;53.63
78745;BME280;68064;53.100;8.824;2023-07-08T01:21:00;102133.13;;;16.15;53.81
78745;BME280;68064;53.100;8.824;2023-07-08T01:22:04;102130.50;;;16.14;53.76
78745;BME280;68064;53.100;8.824;2023-07-08T01:23:05;102134.91;;;16.16;53.76
78745;BME280;68064;53.100;8.824;2023-07-08T01:24:08;102128.78;;;16.14;54.07
78745;BME280;68064;53.100;8.824;2023-07-08T01:25:11;102133.00;;;16.12;53.77
78745;BME280;68064;53.100;8.824;2023-07-08T01:26:13;102127.81;;;16.12;53.85
78745;BME280;68064;53.100;8.824;2023-07-08T01:27:17;102124.31;;;16.10;54.11
78745;BME280;68064;53.100;8.824;2023-07-08T01:28:19;102125.13;;;16.09;54.04
78745;BME280;68064;53.100;8.824;2023-07-08T01:29:20;102131.94;;;16.07;54.07
78745;BME280;68064;53.100;8.824;2023-07-08T01:30:21;102126.81;;;16.09;54.04
78745;BME280;68064;53.100;8.824;2023-07-08T01:31:23;102120.75;;;16.08;53.79
78745;BME280;68064;53.100;8.824;2023-07-08T01:32:25;102126.69;;;16.06;54.04
78745;BME280;68064;53.100;8.824;2023-07-08T01:33:26;102124.88;;;16.03;54.01
78745;BME280;68064;53.100;8.824;2023-07-08T01:34:27;102123.97;;;16.03;54.20
78745;BME280;68064;53.100;8.824;2023-07-08T01:35:28;102119.59;;;16.00;54.29
78745;BME280;68064;53.100;8.824;2023-07-08T01:36:33;102123.94;;;16.01;53.82
78745;BME280;68064;53.100;8.824;2023-07-08T01:37:38;102122.16;;;16.00;54.00
78745;BME280;68064;53.100;8.824;2023-07-08T01:38:41;102128.09;;;15.98;54.25
78745;BME280;68064;53.100;8.824;2023-07-08T01:39:42;102128.09;;;15.98;54.04
78745;BME280;68064;53.100;8.824;2023-07-08T01:40:49;102121.91;;;15.94;54.11
78745;BME280;68064;53.100;8.824;2023-07-08T01:41:51;102120.13;;;15.93;54.19
78745;BME280;68064;53.100;8.824;2023-07-08T01:42:52;102116.63;;;15.91;54.13
78745;BME280;68064;53.100;8.824;2023-07-08T01:43:53;102112.25;;;15.90;54.31
78745;BME280;68064;53.100;8.824;2023-07-08T01:44:54;102112.94;;;15.86;54.33
78745;BME280;68064;53.100;8.824;2023-07-08T01:45:58;102112.00;;;15.84;54.34
78745;BME280;68064;53.100;8.824;2023-07-08T01:47:06;102112.91;;;15.84;54.58
78745;BME280;68064;53.100;8.824;2023-07-08T01:48:09;102109.09;;;15.76;54.39
78745;BME280;68064;53.100;8.824;2023-07-08T01:49:10;102112.56;;;15.77;54.29
78745;BME280;68064;53.100;8.824;2023-07-08T01:50:11;102109.59;;;15.68;55.71
78745;BME280;68064;53.100;8.824;2023-07-08T01:51:12;102111.53;;;15.73;54.88
78745;BME280;68064;53.100;8.824;2023-07-08T01:52:15;102112.38;;;15.72;54.66
78745;BME280;68064;53.100;8.824;2023-07-08T01:53:20;102110.53;;;15.70;54.58
78745;BME280;68064;53.100;8.824;2023-07-08T01:54:22;102114.75;;;15.68;54.47
78745;BME280;68064;53.100;8.824;2023-07-08T01:55:23;102114.63;;;15.65;54.30
78745;BME280;68064;53.100;8.824;2023-07-08T01:56:24;102113.00;;;15.67;54.74
78745;BME280;68064;53.100;8.824;2023-07-08T01:57:25;102112.13;;;15.66;54.63
78745;BME280;68064;53.100;8.824;2023-07-08T01:58:26;102118.09;;;15.65;54.46
78745;BME280;68064;53.100;8.824;2023-07-08T01:59:28;102114.50;;;15.62;54.80
78745;BME280;68064;53.100;8.824;2023-07-08T02:00:29;102111.91;;;15.62;54.73
78745;BME280;68064;53.100;8.824;2023-07-08T02:01:30;102114.38;;;15.59;55.45
78745;BME280;68064;53.100;8.824;2023-07-08T02:02:31;102118.59;;;15.57;54.70
78745;BME280;68064;53.100;8.824;2023-07-08T02:03:32;102105.63;;;15.55;54.54
78745;BME280;68064;53.100;8.824;2023-07-08T02:04:33;102110.91;;;15.58;54.72
78745;BME280;68064;53.100;8.824;2023-07-08T02:05:34;102113.44;;;15.57;55.07
78745;BME280;68064;53.100;8.824;2023-07-08T02:06:35;102119.41;;;15.56;54.58
78745;BME280;68064;53.100;8.824;2023-07-08T02:07:36;102114.91;;;15.52;54.82
78745;BME280;68064;53.100;8.824;2023-07-08T02:08:38;102111.44;;;15.51;54.75
78745;BME280;68064;53.100;8.824;2023-07-08T02:09:40;102115.00;;;15.53;54.83
78745;BME280;68064;53.100;8.824;2023-07-08T02:10:42;102113.22;;;15.52;54.78
78745;BME280;68064;53.100;8.824;2023-07-08T02:11:43;102113.09;;;15.49;54.68
78745;BME280;68064;53.100;8.824;2023-07-08T02:12:44;102108.75;;;15.48;54.82
78745;BME280;68064;53.100;8.824;2023-07-08T02:13:45;102111.31;;;15.48;54.73
78745;BME280;68064;53.100;8.824;2023-07-08T02:14:46;102107.84;;;15.48;54.58
78745;BME280;68064;53.100;8.824;2023-07-08T02:15:48;102109.53;;;15.47;55.07
78745;BME280;68064;53.100;8.824;2023-07-08T02:16:49;102106.06;;;15.47;54.81
78745;BME280;68064;53.100;8.824;2023-07-08T02:17:50;102110.34;;;15.46;54.88
78745;BME280;68064;53.100;8.824;2023-07-08T02:18:51;102112.84;;;15.45;54.95
78745;BME280;68064;53.100;8.824;2023-07-08T02:19:52;102113.69;;;15.44;54.90
78745;BME280;68064;53.100;8.824;2023-07-08T02:20:53;102113.59;;;15.42;54.96
78745;BME280;68064;53.100;8.824;2023-07-08T02:21:54;102108.41;;;15.41;54.79
78745;BME280;68064;53.100;8.824;2023-07-08T02:22:55;102108.41;;;15.41;54.91
78745;BME280;68064;53.100;8.824;2023-07-08T02:23:58;102106.63;;;15.40;54.96
78745;BME280;68064;53.100;8.824;2023-07-08T02:24:59;102110.00;;;15.38;55.07
78745;BME280;68064;53.100;8.824;2023-07-08T02:26:00;102106.47;;;15.36;55.15
78745;BME280;68064;53.100;8.824;2023-07-08T02:27:01;102114.16;;;15.35;55.21
78745;BME280;68064;53.100;8.824;2023-07-08T02:28:02;102109.75;;;15.32;55.24
78745;BME280;68064;53.100;8.824;2023-07-08T02:29:03;102113.28;;;15.34;55.24
78745;BME280;68064;53.100;8.824;2023-07-08T02:30:05;102122.59;;;15.31;55.13
78745;BME280;68064;53.100;8.824;2023-07-08T02:31:07;102113.81;;;15.27;55.01
78745;BME280;68064;53.100;8.824;2023-07-08T02:32:09;102120.69;;;15.27;55.38
78745;BME280;68064;53.100;8.824;2023-07-08T02:33:10;102121.56;;;15.27;55.30
78745;BME280;68064;53.100;8.824;2023-07-08T02:34:11;102116.31;;;15.26;55.27
78745;BME280;68064;53.100;8.824;2023-07-08T02:35:12;102115.25;;;15.21;55.25
78745;BME280;68064;53.100;8.824;2023-07-08T02:36:15;102116.94;;;15.20;55.22
78745;BME280;68064;53.100;8.824;2023-07-08T02:37:16;102118.63;;;15.20;55.26
78745;BME280;68064;53.100;8.824;2023-07-08T02:38:17;102110.91;;;15.20;55.34
78745;BME280;68064;53.100;8.824;2023-07-08T02:39:20;102107.38;;;15.18;55.33
78745;BME280;68064;53.100;8.824;2023-07-08T02:40:21;102107.44;;;15.19;55.35
78745;BME280;68064;53.100;8.824;2023-07-08T02:41:22;102110.75;;;15.17;55.60
78745;BME280;68064;53.100;8.824;2023-07-08T02:42:23;102104.66;;;15.15;55.46
78745;BME280;68064;53.100;8.824;2023-07-08T02:43:24;102111.50;;;15.14;55.53
78745;BME280;68064;53.100;8.824;2023-07-08T02:44:25;102105.47;;;15.14;55.58
78745;BME280;68064;53.100;8.824;2023-07-08T02:45:26;102101.06;;;15.11;55.47
78745;BME280;68064;53.100;8.824;2023-07-08T02:46:27;102108.78;;;15.11;55.60
78745;BME280;68064;53.100;8.824;2023-07-08T02:47:28;102106.22;;;15.11;55.60
78745;BME280;68064;53.100;8.824;2023-07-08T02:48:30;102111.28;;;15.10;55.75
78745;BME280;68064;53.100;8.824;2023-07-08T02:49:31;102105.25;;;15.09;55.79
78745;BME280;68064;53.100;8.824;2023-07-08T02:50:32;102106.09;;;15.08;55.76
78745;BME280;68064;53.100;8.824;2023-07-08T02:51:33;102103.22;;;15.02;55.51
78745;BME280;68064;53.100;8.824;2023-07-08T02:52:34;102110.84;;;14.99;55.76
78745;BME280;68064;53.100;8.824;2023-07-08T02:53:35;102103.91;;;14.98;55.62
78745;BME280;68064;53.100;8.824;2023-07-08T02:54:37;102103.91;;;14.98;55.64
78745;BME280;68064;53.100;8.824;2023-07-08T02:55:38;102103.91;;;14.98;55.83
78745;BME280;68064;53.100;8.824;2023-07-08T02:56:39;102106.25;;;14.94;55.65
78745;BME280;68064;53.100;8.824;2023-07-08T02:57:41;102107.91;;;14.92;55.83
78745;BME280;68064;53.100;8.824;2023-07-08T02:58:42;102108.56;;;14.88;55.94
78745;BME280;68064;53.100;8.824;2023-07-08T02:59:43;102104.81;;;14.81;57.91
78745;BME280;68064;53.100;8.824;2023-07-08T03:00:44;102109.84;;;14.78;56.22
78745;BME280;68064;53.100;8.824;2023-07-08T03:01:45;102103.06;;;14.80;56.06
78745;BME280;68064;53.100;8.824;2023-07-08T03:02:46;102105.69;;;14.81;56.17
78745;BME280;68064;53.100;8.824;2023-07-08T03:03:47;102099.75;;;14.82;56.03
78745;BME280;68064;53.100;8.824;2023-07-08T03:04:48;102104.09;;;14.83;56.07
78745;BME280;68064;53.100;8.824;2023-07-08T03:05:56;102102.38;;;14.84;56.07
78745;BME280;68064;53.100;8.824;2023-07-08T03:06:57;102096.38;;;14.83;56.05
78745;BME280;68064;53.100;8.824;2023-07-08T03:07:58;102090.22;;;14.81;56.27
78745;BME280;68064;53.100;8.824;2023-07-08T03:08:59;102095.38;;;14.81;56.08
78745;BME280;68064;53.100;8.824;2023-07-08T03:10:02;102099.09;;;14.69;58.72
78745;BME280;68064;53.100;8.824;2023-07-08T03:11:05;102089.81;;;14.72;56.84
78745;BME280;68064;53.100;8.824;2023-07-08T03:12:07;102093.19;;;14.71;56.63
78745;BME280;68064;53.100;8.824;2023-07-08T03:13:09;102096.75;;;14.73;56.68
78745;BME280;68064;53.100;8.824;2023-07-08T03:14:10;102090.72;;;14.73;56.58
78745;BME280;68064;53.100;8.824;2023-07-08T03:15:11;102090.56;;;14.70;56.45
78745;BME280;68064;53.100;8.824;2023-07-08T03:16:12;102094.03;;;14.70;56.28
78745;BME280;68064;53.100;8.824;2023-07-08T03:17:13;102093.16;;;14.70;56.44
78745;BME280;68064;53.100;8.824;2023-07-08T03:18:14;102098.97;;;14.66;56.45
78745;BME280;68064;53.100;8.824;2023-07-08T03:19:15;102101.53;;;14.66;56.34
78745;BME280;68064;53.100;8.824;2023-07-08T03:20:16;102102.47;;;14.68;56.30
78745;BME280;68064;53.100;8.824;2023-07-08T03:21:18;102094.56;;;14.63;56.25
78745;BME280;68064;53.100;8.824;2023-07-08T03:22:19;102100.44;;;14.61;56.20
78745;BME280;68064;53.100;8.824;2023-07-08T03:23:20;102089.25;;;14.60;56.26
78745;BME280;68064;53.100;8.824;2023-07-08T03:24:21;102088.47;;;14.61;56.47
78745;BME280;68064;53.100;8.824;2023-07-08T03:25:23;102092.72;;;14.61;56.52
78745;BME280;68064;53.100;8.824;2023-07-08T03:26:26;102098.75;;;14.61;56.44
78745;BME280;68064;53.100;8.824;2023-07-08T03:27:27;102097.78;;;14.59;56.50
78745;BME280;68064;53.100;8.824;2023-07-08T03:28:28;102098.31;;;14.52;63.32
78745;BME280;68064;53.100;8.824;2023-07-08T03:29:29;102101.72;;;14.51;57.43
78745;BME280;68064;53.100;8.824;2023-07-08T03:30:30;102098.25;;;14.51;56.95
78745;BME280;68064;53.100;8.824;2023-07-08T03:31:31;102097.22;;;14.47;57.02
78745;BME280;68064;53.100;8.824;2023-07-08T03:32:32;102086.81;;;14.46;56.93
78745;BME280;68064;53.100;8.824;2023-07-08T03:33:33;102096.34;;;14.47;61.58
78745;BME280;68064;53.100;8.824;2023-07-08T03:34:34;102097.00;;;14.43;56.84
78745;BME280;68064;53.100;8.824;2023-07-08T03:35:35;102096.34;;;14.47;56.79
78745;BME280;68064;53.100;8.824;2023-07-08T03:36:40;102094.66;;;14.47;56.77
78745;BME280;68064;53.100;8.824;2023-07-08T03:37:42;102102.13;;;14.43;56.71
78745;BME280;68064;53.100;8.824;2023-07-08T03:38:43;102103.53;;;14.36;58.30
78745;BME280;68064;53.100;8.824;2023-07-08T03:39:44;102104.53;;;14.38;57.11
78745;BME280;68064;53.100;8.824;2023-07-08T03:40:47;102102.84;;;14.39;56.94
78745;BME280;68064;53.100;8.824;2023-07-08T03:41:49;102102.69;;;14.36;56.84
78745;BME280;68064;53.100;8.824;2023-07-08T03:42:50;102106.94;;;14.35;56.74
78745;BME280;68064;53.100;8.824;2023-07-08T03:43:51;102102.69;;;14.36;56.83
78745;BME280;68064;53.100;8.824;2023-07-08T03:44:52;102096.47;;;14.32;56.47
78745;BME280;68064;53.100;8.824;2023-07-08T03:45:53;102101.53;;;14.30;56.69
78745;BME280;68064;53.100;8.824;2023-07-08T03:46:54;102095.56;;;14.31;56.76
78745;BME280;68064;53.100;8.824;2023-07-08T03:47:55;102096.47;;;14.32;56.75
78745;BME280;68064;53.100;8.824;2023-07-08T03:48:56;102096.56;;;14.34;56.95
78745;BME280;68064;53.100;8.824;2023-07-08T03:49:57;102105.88;;;14.31;56.81
78745;BME280;68064;53.100;8.824;2023-07-08T03:50:58;102098.91;;;14.29;56.76
78745;BME280;68064;53.100;8.824;2023-07-08T03:51:59;102098.00;;;14.28;56.87
78745;BME280;68064;53.100;8.824;2023-07-08T03:53:00;102102.31;;;14.29;56.50
78745;BME280;68064;53.100;8.824;2023-07-08T03:54:02;102101.38;;;14.27;56.80
78745;BME280;68064;53.100;8.824;2023-07-08T03:55:03;102105.00;;;14.31;56.76
78745;BME280;68064;53.100;8.824;2023-07-08T03:56:07;102109.19;;;14.29;56.79
78745;BME280;68064;53.100;8.824;2023-07-08T03:57:08;102101.47;;;14.29;56.93
78745;BME280;68064;53.100;8.824;2023-07-08T03:58:09;102108.38;;;14.30;56.98
78745;BME280;68064;53.100;8.824;2023-07-08T03:59:11;102104.06;;;14.29;56.88
78745;BME280;68064;53.100;8.824;2023-07-08T04:00:12;102098.81;;;14.27;56.71
78745;BME280;68064;53.100;8.824;2023-07-08T04:01:14;102101.47;;;14.29;56.74
78745;BME280;68064;53.100;8.824;2023-07-08T04:02:16;102097.13;;;14.28;56.71
78745;BME280;68064;53.100;8.824;2023-07-08T04:03:18;102100.59;;;14.28;56.64
78745;BME280;68064;53.100;8.824;2023-07-08T04:04:19;102093.66;;;14.27;56.63
78745;BME280;68064;53.100;8.824;2023-07-08T04:05:22;102094.41;;;14.25;56.73
78745;BME280;68064;53.100;8.824;2023-07-08T04:06:23;102089.16;;;14.23;56.81
78745;BME280;68064;53.100;8.824;2023-07-08T04:07:25;102098.66;;;14.24;57.05
78745;BME280;68064;53.100;8.824;2023-07-08T04:08:28;102087.31;;;14.21;56.84
78745;BME280;68064;53.100;8.824;2023-07-08T04:09:29;102088.06;;;14.18;56.75
78745;BME280;68064;53.100;8.824;2023-07-08T04:10:30;102091.38;;;14.16;57.46
78745;BME280;68064;53.100;8.824;2023-07-08T04:11:33;102091.16;;;14.11;59.91
78745;BME280;68064;53.100;8.824;2023-07-08T04:12:34;102091.88;;;14.09;58.68
78745;BME280;68064;53.100;8.824;2023-07-08T04:13:35;102093.72;;;14.11;57.72
78745;BME280;68064;53.100;8.824;2023-07-08T04:14:36;102104.19;;;14.14;57.49
78745;BME280;68064;53.100;8.824;2023-07-08T04:15:37;102098.81;;;14.10;61.39
78745;BME280;68064;53.100;8.824;2023-07-08T04:16:45;102095.34;;;14.09;57.50
78745;BME280;68064;53.100;8.824;2023-07-08T04:17:48;102098.06;;;14.12;57.39
78745;BME280;68064;53.100;8.824;2023-07-08T04:18:50;102098.06;;;14.12;57.15
78745;BME280;68064;53.100;8.824;2023-07-08T04:19:51;102096.44;;;14.14;57.29
78745;BME280;68064;53.100;8.824;2023-07-08T04:20:52;102088.66;;;14.13;56.94
78745;BME280;68064;53.100;8.824;2023-07-08T04:21:53;102089.56;;;14.13;56.95
78745;BME280;68064;53.100;8.824;2023-07-08T04:22:54;102089.59;;;14.15;57.05
78745;BME280;68064;53.100;8.824;2023-07-08T04:23:55;102085.25;;;14.14;57.08
78745;BME280;68064;53.100;8.824;2023-07-08T04:24:56;102089.56;;;14.13;57.14
78745;BME280;68064;53.100;8.824;2023-07-08T04:25:57;102089.56;;;14.13;56.93
78745;BME280;68064;53.100;8.824;2023-07-08T04:27:00;102089.56;;;14.13;56.67
78745;BME280;68064;53.100;8.824;2023-07-08T04:28:01;102091.16;;;14.11;56.96
78745;BME280;68064;53.100;8.824;2023-07-08T04:29:02;102088.72;;;14.14;56.97
78745;BME280;68064;53.100;8.824;2023-07-08T04:30:04;102089.56;;;14.13;63.65
78745;BME280;68064;53.100;8.824;2023-07-08T04:31:05;102085.19;;;14.12;57.69
78745;BME280;68064;53.100;8.824;2023-07-08T04:32:07;102091.28;;;14.14;57.29
78745;BME280;68064;53.100;8.824;2023-07-08T04:33:08;102092.13;;;14.13;63.45
78745;BME280;68064;53.100;8.824;2023-07-08T04:34:09;102091.94;;;14.10;57.55
78745;BME280;68064;53.100;8.824;2023-07-08T04:35:11;102091.09;;;14.10;57.05
78745;BME280;68064;53.100;8.824;2023-07-08T04:36:13;102094.38;;;14.07;60.21
78745;BME280;68064;53.100;8.824;2023-07-08T04:37:14;102091.59;;;14.03;57.33
78745;BME280;68064;53.100;8.824;2023-07-08T04:38:17;102095.13;;;14.05;57.19
78745;BME280;68064;53.100;8.824;2023-07-08T04:39:19;102085.72;;;14.05;57.19
78745;BME280;68064;53.100;8.824;2023-07-08T04:40:20;102088.38;;;14.07;56.80
78745;BME280;68064;53.100;8.824;2023-07-08T04:41:21;102099.66;;;14.10;56.96
78745;BME280;68064;53.100;8.824;2023-07-08T04:42:24;102098.88;;;14.11;56.97
78745;BME280;68064;53.100;8.824;2023-07-08T04:43:25;102096.25;;;14.10;56.79
78745;BME280;68064;53.100;8.824;2023-07-08T04:44:26;102097.97;;;14.11;56.82
78745;BME280;68064;53.100;8.824;2023-07-08T04:45:27;102098.81;;;14.10;56.73
78745;BME280;68064;53.100;8.824;2023-07-08T04:46:33;102092.78;;;14.09;57.07
78745;BME280;68064;53.100;8.824;2023-07-08T04:47:35;102098.06;;;14.12;56.96
78745;BME280;68064;53.100;8.824;2023-07-08T04:48:36;102095.66;;;14.15;56.89
78745;BME280;68064;53.100;8.824;2023-07-08T04:49:37;102100.00;;;14.16;56.71
78745;BME280;68064;53.100;8.824;2023-07-08T04:50:39;102096.53;;;14.16;56.61
78745;BME280;68064;53.100;8.824;2023-07-08T04:51:41;102094.03;;;14.17;56.61
78745;BME280;68064;53.100;8.824;2023-07-08T04:52:42;102095.78;;;14.18;56.66
78745;BME280;68064;53.100;8.824;2023-07-08T04:53:43;102094.03;;;14.17;57.53
78745;BME280;68064;53.100;8.824;2023-07-08T04:54:44;102100.16;;;14.19;66.99
78745;BME280;68064;53.100;8.824;2023-07-08T04:55:48;102096.59;;;14.17;60.80
78745;BME280;68064;53.100;8.824;2023-07-08T04:56:51;102088.97;;;14.19;62.02
78745;BME280;68064;53.100;8.824;2023-07-08T04:57:53;102089.75;;;14.18;62.34
78745;BME280;68064;53.100;8.824;2023-07-08T04:58:54;102086.16;;;14.14;58.85
78745;BME280;68064;53.100;8.824;2023-07-08T04:59:58;102080.34;;;14.18;60.82
78745;BME280;68064;53.100;8.824;2023-07-08T05:00:59;102087.13;;;14.16;57.51
78745;BME280;68064;53.100;8.824;2023-07-08T05:02:00;102087.19;;;14.18;58.09
78745;BME280;68064;53.100;8.824;2023-07-08T05:03:01;102088.22;;;14.21;59.58
78745;BME280;68064;53.100;8.824;2023-07-08T05:04:02;102092.63;;;14.24;61.28
78745;BME280;68064;53.100;8.824;2023-07-08T05:05:04;102093.50;;;14.24;62.92
78745;BME280;68064;53.100;8.824;2023-07-08T05:06:05;102092.84;;;14.28;66.91
78745;BME280;68064;53.100;8.824;2023-07-08T05:07:12;102085.78;;;14.24;58.06
78745;BME280;68064;53.100;8.824;2023-07-08T05:08:13;102091.03;;;14.26;58.96
78745;BME280;68064;53.100;8.824;2023-07-08T05:09:14;102096.19;;;14.26;57.82
78745;BME280;68064;53.100;8.824;2023-07-08T05:10:15;102093.88;;;14.32;67.75
78745;BME280;68064;53.100;8.824;2023-07-08T05:11:16;102093.31;;;14.38;66.36
78745;BME280;68064;53.100;8.824;2023-07-08T05:12:17;102085.97;;;14.45;70.81
78745;BME280;68064;53.100;8.824;2023-07-08T05:13:20;102092.66;;;14.42;69.26
78745;BME280;68064;53.100;8.824;2023-07-08T05:14:21;102088.97;;;14.37;61.72
78745;BME280;68064;53.100;8.824;2023-07-08T05:15:22;102086.41;;;14.37;64.56
78745;BME280;68064;53.100;8.824;2023-07-08T05:16:23;102090.75;;;14.38;64.72
78745;BME280;68064;53.100;8.824;2023-07-08T05:17:26;102093.63;;;14.44;70.58
78745;BME280;68064;53.100;8.824;2023-07-08T05:18:28;102094.00;;;14.51;64.47
78745;BME280;68064;53.100;8.824;2023-07-08T05:19:32;102090.56;;;14.52;65.51
78745;BME280;68064;53.100;8.824;2023-07-08T05:20:33;102092.28;;;14.52;65.51
78745;BME280;68064;53.100;8.824;2023-07-08T05:21:34;102082.78;;;14.51;62.60
78745;BME280;68064;53.100;8.824;2023-07-08T05:22:35;102082.84;;;14.52;62.09
78745;BME280;68064;53.100;8.824;2023-07-08T05:23:36;102081.44;;;14.59;68.86